sensor_id;sensor_type;location;lat;lon;timestamp;P1;durP1;ratioP1;P2;durP2;ratioP2
17631;SDS011;8934;51.194;17.150;2023-07-24T00:01:09;6.10;;;4.05;;
17631;SDS011;8934;51.194;17.150;2023-07-24T00:03:56;5.05;;;4.00;;
17631;SDS011;8934;51.194;17.150;2023-07-24T00:06:44;5.93;;;4.35;;
17631;SDS011;8934;51.194;17.150;2023-07-24T00:09:32;5.78;;;4.00;;
17631;SDS011;8934;51.194;17.150;2023-07-24T00:12:20;5.25;;;4.07;;
17631;SDS011;8934;51.194;17.150;2023-07-24T00:15:07;5.68;;;4.30;;
17631;SDS011;8934;51.194;17.150;2023-07-24T00:17:56;5.30;;;3.95;;
17631;SDS011;8934;51.194;17.150;2023-07-24T00:20:43;5.93;;;3.85;;
17631;SDS011;8934;51.194;17.150;2023-07-24T00:23:31;5.35;;;3.90;;
17631;SDS011;8934;51.194;17.150;2023-07-24T00:26:18;6.28;;;4.38;;
17631;SDS011;8934;51.194;17.150;2023-07-24T00:29:05;5.97;;;3.88;;
17631;SDS011;8934;51.194;17.150;2023-07-24T00:31:53;7.35;;;3.97;;
17631;SDS011;8934;51.194;17.150;2023-07-24T00:34:42;6.20;;;4.32;;
17631;SDS011;8934;51.194;17.150;2023-07-24T00:37:29;5.95;;;4.20;;
17631;SDS011;8934;51.194;17.150;2023-07-24T00:40:16;5.20;;;3.47;;
17631;SDS011;8934;51.194;17.150;2023-07-24T00:43:04;5.05;;;3.60;;
17631;SDS011;8934;51.194;17.150;2023-07-24T00:45:53;5.43;;;4.20;;
17631;SDS011;8934;51.194;17.150;2023-07-24T00:48:42;5.60;;;4.45;;
17631;SDS011;8934;51.194;17.150;2023-07-24T00:51:31;6.75;;;4.43;;
17631;SDS011;8934;51.194;17.150;2023-07-24T00:54:21;6.43;;;4.20;;
17631;SDS011;8934;51.194;17.150;2023-07-24T00:57:09;5.70;;;4.50;;
17631;SDS011;8934;51.194;17.150;2023-07-24T00:59:56;7.45;;;4.43;;
17631;SDS011;8934;51.194;17.150;2023-07-24T01:02:43;5.05;;;3.72;;
17631;SDS011;8934;51.194;17.150;2023-07-24T01:05:31;4.28;;;3.50;;
17631;SDS011;8934;51.194;17.150;2023-07-24T01:08:20;5.53;;;3.88;;
17631;SDS011;8934;51.194;17.150;2023-07-24T01:11:09;6.60;;;4.38;;
17631;SDS011;8934;51.194;17.150;2023-07-24T01:14:02;5.40;;;4.20;;
17631;SDS011;8934;51.194;17.150;2023-07-24T01:16:55;6.43;;;4.43;;
17631;SDS011;8934;51.194;17.150;2023-07-24T01:19:46;6.50;;;4.07;;
17631;SDS011;8934;51.194;17.150;2023-07-24T01:22:38;5.97;;;4.15;;
17631;SDS011;8934;51.194;17.150;2023-07-24T01:25:35;5.45;;;4.10;;
17631;SDS011;8934;51.194;17.150;2023-07-24T01:28:26;6.85;;;4.57;;
17631;SDS011;8934;51.194;17.150;2023-07-24T01:31:13;7.43;;;4.68;;
17631;SDS011;8934;51.194;17.150;2023-07-24T01:34:02;7.07;;;4.68;;
17631;SDS011;8934;51.194;17.150;2023-07-24T01:36:49;7.93;;;4.90;;
17631;SDS011;8934;51.194;17.150;2023-07-24T01:39:37;5.80;;;4.53;;
17631;SDS011;8934;51.194;17.150;2023-07-24T01:42:26;7.43;;;5.00;;
17631;SDS011;8934;51.194;17.150;2023-07-24T01:45:16;7.13;;;4.47;;
17631;SDS011;8934;51.194;17.150;2023-07-24T01:48:03;6.60;;;4.20;;
17631;SDS011;8934;51.194;17.150;2023-07-24T01:50:51;6.93;;;3.95;;
17631;SDS011;8934;51.194;17.150;2023-07-24T01:53:39;9.43;;;4.55;;
17631;SDS011;8934;51.194;17.150;2023-07-24T01:56:26;4.78;;;4.28;;
17631;SDS011;8934;51.194;17.150;2023-07-24T01:59:14;7.60;;;4.78;;
17631;SDS011;8934;51.194;17.150;2023-07-24T02:02:02;6.93;;;4.97;;
17631;SDS011;8934;51.194;17.150;2023-07-24T02:04:50;6.53;;;4.18;;
17631;SDS011;8934;51.194;17.150;2023-07-24T02:07:38;4.60;;;4.07;;
17631;SDS011;8934;51.194;17.150;2023-07-24T02:10:25;6.93;;;4.78;;
17631;SDS011;8934;51.194;17.150;2023-07-24T02:13:13;7.47;;;4.40;;
17631;SDS011;8934;51.194;17.150;2023-07-24T02:16:06;5.78;;;3.95;;
17631;SDS011;8934;51.194;17.150;2023-07-24T02:18:55;8.15;;;4.38;;
17631;SDS011;8934;51.194;17.150;2023-07-24T02:21:42;7.32;;;5.05;;
17631;SDS011;8934;51.194;17.150;2023-07-24T02:24:30;6.38;;;4.63;;
17631;SDS011;8934;51.194;17.150;2023-07-24T02:27:24;7.95;;;4.43;;
17631;SDS011;8934;51.194;17.150;2023-07-24T02:30:15;5.43;;;4.05;;
17631;SDS011;8934;51.194;17.150;2023-07-24T02:33:02;5.90;;;4.53;;
17631;SDS011;8934;51.194;17.150;2023-07-24T02:35:52;6.63;;;5.38;;
17631;SDS011;8934;51.194;17.150;2023-07-24T02:38:39;5.93;;;4.30;;
17631;SDS011;8934;51.194;17.150;2023-07-24T02:41:26;7.30;;;4.63;;
17631;SDS011;8934;51.194;17.150;2023-07-24T02:44:13;5.85;;;4.60;;
17631;SDS011;8934;51.194;17.150;2023-07-24T02:47:01;6.15;;;4.30;;
17631;SDS011;8934;51.194;17.150;2023-07-24T02:49:48;5.70;;;4.30;;
17631;SDS011;8934;51.194;17.150;2023-07-24T02:52:37;8.43;;;5.15;;
17631;SDS011;8934;51.194;17.150;2023-07-24T02:55:24;6.38;;;4.55;;
17631;SDS011;8934;51.194;17.150;2023-07-24T02:58:13;8.75;;;4.32;;
17631;SDS011;8934;51.194;17.150;2023-07-24T03:01:02;5.40;;;4.00;;
17631;SDS011;8934;51.194;17.150;2023-07-24T03:03:52;8.15;;;4.43;;
17631;SDS011;8934;51.194;17.150;2023-07-24T03:06:39;6.07;;;4.25;;
17631;SDS011;8934;51.194;17.150;2023-07-24T03:09:28;7.97;;;4.50;;
17631;SDS011;8934;51.194;17.150;2023-07-24T03:12:15;7.03;;;4.60;;
17631;SDS011;8934;51.194;17.150;2023-07-24T03:15:04;9.60;;;5.60;;
17631;SDS011;8934;51.194;17.150;2023-07-24T03:17:52;7.53;;;4.68;;
17631;SDS011;8934;51.194;17.150;2023-07-24T03:20:39;11.88;;;5.22;;
17631;SDS011;8934;51.194;17.150;2023-07-24T03:23:27;8.27;;;4.60;;
17631;SDS011;8934;51.194;17.150;2023-07-24T03:26:15;7.30;;;5.00;;
17631;SDS011;8934;51.194;17.150;2023-07-24T03:29:04;6.97;;;4.60;;
17631;SDS011;8934;51.194;17.150;2023-07-24T03:31:52;6.00;;;4.22;;
17631;SDS011;8934;51.194;17.150;2023-07-24T03:34:40;6.28;;;4.28;;
17631;SDS011;8934;51.194;17.150;2023-07-24T03:37:27;6.72;;;4.25;;
17631;SDS011;8934;51.194;17.150;2023-07-24T03:40:15;7.13;;;4.80;;
17631;SDS011;8934;51.194;17.150;2023-07-24T03:43:04;6.43;;;4.50;;
17631;SDS011;8934;51.194;17.150;2023-07-24T03:45:51;8.63;;;5.18;;
17631;SDS011;8934;51.194;17.150;2023-07-24T03:48:38;7.30;;;4.22;;
17631;SDS011;8934;51.194;17.150;2023-07-24T03:51:26;9.98;;;4.90;;
17631;SDS011;8934;51.194;17.150;2023-07-24T03:54:13;7.70;;;4.30;;
17631;SDS011;8934;51.194;17.150;2023-07-24T03:57:01;7.40;;;5.10;;
17631;SDS011;8934;51.194;17.150;2023-07-24T03:59:50;8.43;;;5.20;;
17631;SDS011;8934;51.194;17.150;2023-07-24T04:02:38;8.80;;;5.03;;
17631;SDS011;8934;51.194;17.150;2023-07-24T04:05:25;7.00;;;4.95;;
17631;SDS011;8934;51.194;17.150;2023-07-24T04:08:12;10.88;;;5.90;;
17631;SDS011;8934;51.194;17.150;2023-07-24T04:11:00;10.95;;;5.53;;
17631;SDS011;8934;51.194;17.150;2023-07-24T04:13:47;9.45;;;5.00;;
17631;SDS011;8934;51.194;17.150;2023-07-24T04:16:36;5.90;;;4.68;;
17631;SDS011;8934;51.194;17.150;2023-07-24T04:19:23;6.93;;;4.43;;
17631;SDS011;8934;51.194;17.150;2023-07-24T04:22:10;8.15;;;4.47;;
17631;SDS011;8934;51.194;17.150;2023-07-24T04:24:58;8.60;;;5.35;;
17631;SDS011;8934;51.194;17.150;2023-07-24T04:27:45;6.45;;;4.78;;
17631;SDS011;8934;51.194;17.150;2023-07-24T04:30:32;7.18;;;4.45;;
17631;SDS011;8934;51.194;17.150;2023-07-24T04:33:21;5.40;;;4.35;;
17631;SDS011;8934;51.194;17.150;2023-07-24T04:36:12;7.15;;;4.97;;
17631;SDS011;8934;51.194;17.150;2023-07-24T04:39:03;9.20;;;4.82;;
17631;SDS011;8934;51.194;17.150;2023-07-24T04:41:50;7.78;;;4.97;;
17631;SDS011;8934;51.194;17.150;2023-07-24T04:44:37;7.78;;;3.97;;
17631;SDS011;8934;51.194;17.150;2023-07-24T04:47:25;7.95;;;4.80;;
17631;SDS011;8934;51.194;17.150;2023-07-24T04:50:14;7.45;;;4.55;;
17631;SDS011;8934;51.194;17.150;2023-07-24T04:53:01;8.20;;;4.60;;
17631;SDS011;8934;51.194;17.150;2023-07-24T04:55:49;12.77;;;5.65;;
17631;SDS011;8934;51.194;17.150;2023-07-24T04:58:36;5.53;;;4.22;;
17631;SDS011;8934;51.194;17.150;2023-07-24T05:01:23;8.95;;;4.75;;
17631;SDS011;8934;51.194;17.150;2023-07-24T05:04:11;7.18;;;4.47;;
17631;SDS011;8934;51.194;17.150;2023-07-24T05:06:59;7.65;;;4.50;;
17631;SDS011;8934;51.194;17.150;2023-07-24T05:09:46;9.48;;;4.95;;
17631;SDS011;8934;51.194;17.150;2023-07-24T05:12:34;7.25;;;4.63;;
17631;SDS011;8934;51.194;17.150;2023-07-24T05:15:22;7.93;;;4.70;;
17631;SDS011;8934;51.194;17.150;2023-07-24T05:18:09;6.10;;;4.20;;
17631;SDS011;8934;51.194;17.150;2023-07-24T05:20:56;8.85;;;4.47;;
17631;SDS011;8934;51.194;17.150;2023-07-24T05:23:45;8.07;;;4.45;;
17631;SDS011;8934;51.194;17.150;2023-07-24T05:26:32;5.72;;;4.20;;
17631;SDS011;8934;51.194;17.150;2023-07-24T05:29:20;6.72;;;4.43;;
17631;SDS011;8934;51.194;17.150;2023-07-24T05:32:07;8.50;;;4.68;;
17631;SDS011;8934;51.194;17.150;2023-07-24T05:34:55;9.23;;;4.72;;
17631;SDS011;8934;51.194;17.150;2023-07-24T05:37:42;10.20;;;5.03;;
17631;SDS011;8934;51.194;17.150;2023-07-24T05:40:31;7.55;;;4.55;;
17631;SDS011;8934;51.194;17.150;2023-07-24T05:43:19;9.45;;;5.38;;
17631;SDS011;8934;51.194;17.150;2023-07-24T05:46:06;6.80;;;4.05;;
17631;SDS011;8934;51.194;17.150;2023-07-24T05:48:53;9.32;;;4.70;;
17631;SDS011;8934;51.194;17.150;2023-07-24T05:51:42;10.13;;;5.20;;
17631;SDS011;8934;51.194;17.150;2023-07-24T05:54:30;8.07;;;4.85;;
17631;SDS011;8934;51.194;17.150;2023-07-24T05:57:18;11.32;;;5.10;;
17631;SDS011;8934;51.194;17.150;2023-07-24T06:00:06;6.20;;;4.32;;
17631;SDS011;8934;51.194;17.150;2023-07-24T06:02:56;8.38;;;4.00;;
17631;SDS011;8934;51.194;17.150;2023-07-24T06:05:44;12.45;;;4.13;;
17631;SDS011;8934;51.194;17.150;2023-07-24T06:08:31;12.00;;;4.45;;
17631;SDS011;8934;51.194;17.150;2023-07-24T06:11:19;8.13;;;4.40;;
17631;SDS011;8934;51.194;17.150;2023-07-24T06:14:08;6.05;;;4.47;;
17631;SDS011;8934;51.194;17.150;2023-07-24T06:16:55;9.35;;;3.85;;
17631;SDS011;8934;51.194;17.150;2023-07-24T06:19:42;6.60;;;4.13;;
17631;SDS011;8934;51.194;17.150;2023-07-24T06:22:29;7.28;;;4.22;;
17631;SDS011;8934;51.194;17.150;2023-07-24T06:25:17;7.13;;;4.20;;
17631;SDS011;8934;51.194;17.150;2023-07-24T06:28:04;6.60;;;4.50;;
17631;SDS011;8934;51.194;17.150;2023-07-24T06:30:53;7.70;;;4.80;;
17631;SDS011;8934;51.194;17.150;2023-07-24T06:33:40;6.07;;;4.00;;
17631;SDS011;8934;51.194;17.150;2023-07-24T06:36:28;5.80;;;3.90;;
17631;SDS011;8934;51.194;17.150;2023-07-24T06:39:16;6.18;;;4.35;;
17631;SDS011;8934;51.194;17.150;2023-07-24T06:42:04;6.28;;;4.07;;
17631;SDS011;8934;51.194;17.150;2023-07-24T06:44:51;5.80;;;4.70;;
17631;SDS011;8934;51.194;17.150;2023-07-24T06:47:40;7.07;;;4.43;;
17631;SDS011;8934;51.194;17.150;2023-07-24T06:50:27;7.85;;;4.43;;
17631;SDS011;8934;51.194;17.150;2023-07-24T06:53:14;6.88;;;4.15;;
17631;SDS011;8934;51.194;17.150;2023-07-24T06:56:02;7.88;;;4.57;;
17631;SDS011;8934;51.194;17.150;2023-07-24T06:58:50;8.70;;;4.40;;
17631;SDS011;8934;51.194;17.150;2023-07-24T07:01:37;6.05;;;4.38;;
17631;SDS011;8934;51.194;17.150;2023-07-24T07:04:26;6.07;;;4.30;;
17631;SDS011;8934;51.194;17.150;2023-07-24T07:07:13;6.82;;;4.82;;
17631;SDS011;8934;51.194;17.150;2023-07-24T07:10:01;9.40;;;4.68;;
17631;SDS011;8934;51.194;17.150;2023-07-24T07:12:48;10.90;;;4.75;;
17631;SDS011;8934;51.194;17.150;2023-07-24T07:15:35;7.03;;;4.22;;
17631;SDS011;8934;51.194;17.150;2023-07-24T07:18:23;7.05;;;4.47;;
17631;SDS011;8934;51.194;17.150;2023-07-24T07:21:11;5.95;;;4.32;;
17631;SDS011;8934;51.194;17.150;2023-07-24T07:23:59;5.97;;;4.38;;
17631;SDS011;8934;51.194;17.150;2023-07-24T07:26:46;7.15;;;4.65;;
17631;SDS011;8934;51.194;17.150;2023-07-24T07:29:33;7.18;;;4.82;;
17631;SDS011;8934;51.194;17.150;2023-07-24T07:32:21;6.78;;;4.47;;
17631;SDS011;8934;51.194;17.150;2023-07-24T07:35:08;6.53;;;4.50;;
17631;SDS011;8934;51.194;17.150;2023-07-24T07:37:56;5.88;;;4.45;;
17631;SDS011;8934;51.194;17.150;2023-07-24T07:40:44;6.85;;;4.55;;
17631;SDS011;8934;51.194;17.150;2023-07-24T07:43:32;6.40;;;4.03;;
17631;SDS011;8934;51.194;17.150;2023-07-24T07:46:20;8.23;;;4.65;;
17631;SDS011;8934;51.194;17.150;2023-07-24T07:49:07;5.85;;;4.43;;
17631;SDS011;8934;51.194;17.150;2023-07-24T07:51:55;6.47;;;3.92;;
17631;SDS011;8934;51.194;17.150;2023-07-24T07:54:46;7.20;;;4.20;;
17631;SDS011;8934;51.194;17.150;2023-07-24T07:57:34;6.57;;;4.68;;
17631;SDS011;8934;51.194;17.150;2023-07-24T08:00:21;5.10;;;3.95;;
17631;SDS011;8934;51.194;17.150;2023-07-24T08:03:09;7.70;;;4.00;;
17631;SDS011;8934;51.194;17.150;2023-07-24T08:05:56;6.88;;;4.10;;
17631;SDS011;8934;51.194;17.150;2023-07-24T08:08:44;4.47;;;3.95;;
17631;SDS011;8934;51.194;17.150;2023-07-24T08:11:32;9.13;;;4.30;;
17631;SDS011;8934;51.194;17.150;2023-07-24T08:14:20;5.53;;;4.40;;
17631;SDS011;8934;51.194;17.150;2023-07-24T08:17:07;5.93;;;4.18;;
17631;SDS011;8934;51.194;17.150;2023-07-24T08:19:55;6.45;;;4.93;;
17631;SDS011;8934;51.194;17.150;2023-07-24T08:22:42;8.05;;;4.35;;
17631;SDS011;8934;51.194;17.150;2023-07-24T08:25:30;7.78;;;4.63;;
17631;SDS011;8934;51.194;17.150;2023-07-24T08:28:18;6.50;;;4.63;;
17631;SDS011;8934;51.194;17.150;2023-07-24T08:31:06;5.53;;;4.38;;
17631;SDS011;8934;51.194;17.150;2023-07-24T08:33:54;6.10;;;4.25;;
17631;SDS011;8934;51.194;17.150;2023-07-24T08:36:41;4.70;;;4.25;;
17631;SDS011;8934;51.194;17.150;2023-07-24T08:39:28;6.50;;;4.38;;
17631;SDS011;8934;51.194;17.150;2023-07-24T08:42:17;5.72;;;4.10;;
17631;SDS011;8934;51.194;17.150;2023-07-24T08:45:10;7.15;;;4.95;;
17631;SDS011;8934;51.194;17.150;2023-07-24T08:47:59;6.00;;;4.82;;
17631;SDS011;8934;51.194;17.150;2023-07-24T08:50:47;6.95;;;4.82;;
17631;SDS011;8934;51.194;17.150;2023-07-24T08:53:36;6.85;;;4.70;;
17631;SDS011;8934;51.194;17.150;2023-07-24T08:56:25;7.35;;;4.95;;
17631;SDS011;8934;51.194;17.150;2023-07-24T08:59:13;10.38;;;4.70;;
17631;SDS011;8934;51.194;17.150;2023-07-24T09:02:02;5.03;;;4.40;;
17631;SDS011;8934;51.194;17.150;2023-07-24T09:04:49;6.28;;;4.75;;
17631;SDS011;8934;51.194;17.150;2023-07-24T09:07:36;4.82;;;4.20;;
17631;SDS011;8934;51.194;17.150;2023-07-24T09:10:24;7.60;;;5.10;;
17631;SDS011;8934;51.194;17.150;2023-07-24T09:13:12;5.13;;;4.13;;
17631;SDS011;8934;51.194;17.150;2023-07-24T09:15:59;5.03;;;4.47;;
17631;SDS011;8934;51.194;17.150;2023-07-24T09:18:48;6.10;;;4.43;;
17631;SDS011;8934;51.194;17.150;2023-07-24T09:21:55;7.00;;;4.57;;
17631;SDS011;8934;51.194;17.150;2023-07-24T09:24:49;5.07;;;4.13;;
17631;SDS011;8934;51.194;17.150;2023-07-24T09:27:38;5.63;;;3.85;;
17631;SDS011;8934;51.194;17.150;2023-07-24T09:30:25;4.47;;;4.00;;
17631;SDS011;8934;51.194;17.150;2023-07-24T09:33:13;5.18;;;3.80;;
17631;SDS011;8934;51.194;17.150;2023-07-24T09:36:02;7.80;;;3.72;;
17631;SDS011;8934;51.194;17.150;2023-07-24T09:38:59;13.13;;;4.65;;
17631;SDS011;8934;51.194;17.150;2023-07-24T09:41:48;5.00;;;3.60;;
17631;SDS011;8934;51.194;17.150;2023-07-24T09:44:36;5.15;;;4.05;;
17631;SDS011;8934;51.194;17.150;2023-07-24T09:47:23;5.88;;;4.05;;
17631;SDS011;8934;51.194;17.150;2023-07-24T09:50:31;5.32;;;3.80;;
17631;SDS011;8934;51.194;17.150;2023-07-24T09:53:22;5.28;;;4.40;;
17631;SDS011;8934;51.194;17.150;2023-07-24T09:56:17;7.90;;;4.60;;
17631;SDS011;8934;51.194;17.150;2023-07-24T09:59:13;6.30;;;4.80;;
17631;SDS011;8934;51.194;17.150;2023-07-24T10:02:00;6.57;;;4.32;;
17631;SDS011;8934;51.194;17.150;2023-07-24T10:04:49;5.85;;;4.78;;
17631;SDS011;8934;51.194;17.150;2023-07-24T10:07:37;4.82;;;4.15;;
17631;SDS011;8934;51.194;17.150;2023-07-24T10:10:25;6.45;;;4.53;;
17631;SDS011;8934;51.194;17.150;2023-07-24T10:13:15;5.75;;;4.50;;
17631;SDS011;8934;51.194;17.150;2023-07-24T10:16:04;15.68;;;5.15;;
17631;SDS011;8934;51.194;17.150;2023-07-24T10:18:52;7.20;;;4.10;;
17631;SDS011;8934;51.194;17.150;2023-07-24T10:21:43;7.68;;;4.85;;
17631;SDS011;8934;51.194;17.150;2023-07-24T10:24:32;4.22;;;3.80;;
17631;SDS011;8934;51.194;17.150;2023-07-24T10:27:29;5.43;;;4.50;;
17631;SDS011;8934;51.194;17.150;2023-07-24T10:30:16;5.90;;;4.38;;
17631;SDS011;8934;51.194;17.150;2023-07-24T10:33:20;5.25;;;4.40;;
17631;SDS011;8934;51.194;17.150;2023-07-24T10:36:08;6.00;;;4.63;;
17631;SDS011;8934;51.194;17.150;2023-07-24T10:38:58;5.70;;;4.70;;
17631;SDS011;8934;51.194;17.150;2023-07-24T10:41:47;7.65;;;5.03;;
17631;SDS011;8934;51.194;17.150;2023-07-24T10:44:36;5.70;;;4.50;;
17631;SDS011;8934;51.194;17.150;2023-07-24T10:47:23;6.65;;;4.78;;
17631;SDS011;8934;51.194;17.150;2023-07-24T10:50:10;8.80;;;4.85;;
17631;SDS011;8934;51.194;17.150;2023-07-24T10:52:59;6.43;;;4.78;;
17631;SDS011;8934;51.194;17.150;2023-07-24T10:55:49;8.60;;;4.68;;
17631;SDS011;8934;51.194;17.150;2023-07-24T10:58:37;5.80;;;4.55;;
17631;SDS011;8934;51.194;17.150;2023-07-24T11:01:26;8.88;;;4.60;;
17631;SDS011;8934;51.194;17.150;2023-07-24T11:04:14;5.93;;;4.70;;
17631;SDS011;8934;51.194;17.150;2023-07-24T11:07:02;5.95;;;4.82;;
17631;SDS011;8934;51.194;17.150;2023-07-24T11:09:50;5.55;;;4.93;;
17631;SDS011;8934;51.194;17.150;2023-07-24T11:12:39;6.82;;;5.20;;
17631;SDS011;8934;51.194;17.150;2023-07-24T11:15:26;7.63;;;5.82;;
17631;SDS011;8934;51.194;17.150;2023-07-24T11:18:15;7.25;;;5.10;;
17631;SDS011;8934;51.194;17.150;2023-07-24T11:21:03;10.25;;;5.57;;
17631;SDS011;8934;51.194;17.150;2023-07-24T11:23:53;7.53;;;5.53;;
17631;SDS011;8934;51.194;17.150;2023-07-24T11:26:41;7.28;;;4.97;;
17631;SDS011;8934;51.194;17.150;2023-07-24T11:29:30;5.80;;;5.20;;
17631;SDS011;8934;51.194;17.150;2023-07-24T11:32:18;6.22;;;4.95;;
17631;SDS011;8934;51.194;17.150;2023-07-24T11:35:08;6.75;;;4.82;;
17631;SDS011;8934;51.194;17.150;2023-07-24T11:37:55;7.55;;;5.53;;
17631;SDS011;8934;51.194;17.150;2023-07-24T11:40:43;6.75;;;4.60;;
17631;SDS011;8934;51.194;17.150;2023-07-24T11:43:31;7.78;;;5.03;;
17631;SDS011;8934;51.194;17.150;2023-07-24T11:46:22;8.05;;;5.32;;
17631;SDS011;8934;51.194;17.150;2023-07-24T11:49:13;7.03;;;5.20;;
17631;SDS011;8934;51.194;17.150;2023-07-24T11:52:04;6.63;;;4.80;;
17631;SDS011;8934;51.194;17.150;2023-07-24T11:54:56;6.30;;;4.53;;
17631;SDS011;8934;51.194;17.150;2023-07-24T11:57:56;7.72;;;4.95;;
17631;SDS011;8934;51.194;17.150;2023-07-24T12:00:45;7.38;;;4.35;;
17631;SDS011;8934;51.194;17.150;2023-07-24T12:03:33;6.47;;;5.00;;
17631;SDS011;8934;51.194;17.150;2023-07-24T12:06:20;6.63;;;4.78;;
17631;SDS011;8934;51.194;17.150;2023-07-24T12:09:11;6.03;;;4.57;;
17631;SDS011;8934;51.194;17.150;2023-07-24T12:11:58;6.80;;;4.97;;
17631;SDS011;8934;51.194;17.150;2023-07-24T12:14:46;5.82;;;4.85;;
17631;SDS011;8934;51.194;17.150;2023-07-24T12:17:33;6.30;;;5.40;;
17631;SDS011;8934;51.194;17.150;2023-07-24T12:20:21;5.50;;;4.88;;
17631;SDS011;8934;51.194;17.150;2023-07-24T12:23:08;6.40;;;5.47;;
17631;SDS011;8934;51.194;17.150;2023-07-24T12:25:57;6.97;;;5.40;;
17631;SDS011;8934;51.194;17.150;2023-07-24T12:28:44;7.53;;;5.45;;
17631;SDS011;8934;51.194;17.150;2023-07-24T12:31:31;6.68;;;5.38;;
17631;SDS011;8934;51.194;17.150;2023-07-24T12:34:19;6.95;;;5.60;;
17631;SDS011;8934;51.194;17.150;2023-07-24T12:37:07;11.35;;;5.75;;
17631;SDS011;8934;51.194;17.150;2023-07-24T12:39:54;7.85;;;5.63;;
17631;SDS011;8934;51.194;17.150;2023-07-24T12:42:43;6.57;;;5.50;;
17631;SDS011;8934;51.194;17.150;2023-07-24T12:45:30;7.07;;;6.25;;
17631;SDS011;8934;51.194;17.150;2023-07-24T12:48:17;9.27;;;5.78;;
17631;SDS011;8934;51.194;17.150;2023-07-24T12:51:05;10.15;;;5.68;;
17631;SDS011;8934;51.194;17.150;2023-07-24T12:53:52;6.38;;;5.28;;
17631;SDS011;8934;51.194;17.150;2023-07-24T12:56:58;9.03;;;5.87;;
17631;SDS011;8934;51.194;17.150;2023-07-24T12:59:46;7.63;;;6.30;;
17631;SDS011;8934;51.194;17.150;2023-07-24T13:02:34;7.93;;;6.60;;
17631;SDS011;8934;51.194;17.150;2023-07-24T13:05:21;9.95;;;6.15;;
17631;SDS011;8934;51.194;17.150;2023-07-24T13:08:09;8.55;;;6.65;;
17631;SDS011;8934;51.194;17.150;2023-07-24T13:10:56;9.73;;;6.47;;
17631;SDS011;8934;51.194;17.150;2023-07-24T13:13:43;9.73;;;6.65;;
17631;SDS011;8934;51.194;17.150;2023-07-24T13:16:32;9.38;;;7.60;;
17631;SDS011;8934;51.194;17.150;2023-07-24T13:19:20;10.90;;;7.18;;
17631;SDS011;8934;51.194;17.150;2023-07-24T13:22:08;9.60;;;7.13;;
17631;SDS011;8934;51.194;17.150;2023-07-24T13:24:55;9.90;;;6.78;;
17631;SDS011;8934;51.194;17.150;2023-07-24T13:27:42;8.75;;;6.75;;
17631;SDS011;8934;51.194;17.150;2023-07-24T13:30:29;8.18;;;6.40;;
17631;SDS011;8934;51.194;17.150;2023-07-24T13:33:18;9.52;;;6.85;;
17631;SDS011;8934;51.194;17.150;2023-07-24T13:36:07;9.63;;;6.85;;
17631;SDS011;8934;51.194;17.150;2023-07-24T13:38:55;10.20;;;7.05;;
17631;SDS011;8934;51.194;17.150;2023-07-24T13:41:42;10.15;;;6.95;;
17631;SDS011;8934;51.194;17.150;2023-07-24T13:44:30;8.43;;;6.32;;
17631;SDS011;8934;51.194;17.150;2023-07-24T13:47:17;11.00;;;6.97;;
17631;SDS011;8934;51.194;17.150;2023-07-24T13:50:08;11.45;;;6.80;;
17631;SDS011;8934;51.194;17.150;2023-07-24T13:52:56;10.13;;;6.90;;
17631;SDS011;8934;51.194;17.150;2023-07-24T13:55:43;8.50;;;6.03;;
17631;SDS011;8934;51.194;17.150;2023-07-24T13:58:31;7.70;;;6.10;;
17631;SDS011;8934;51.194;17.150;2023-07-24T14:01:18;10.20;;;6.35;;
17631;SDS011;8934;51.194;17.150;2023-07-24T14:04:05;9.98;;;6.20;;
17631;SDS011;8934;51.194;17.150;2023-07-24T14:06:54;10.05;;;6.88;;
17631;SDS011;8934;51.194;17.150;2023-07-24T14:09:42;8.98;;;6.00;;
17631;SDS011;8934;51.194;17.150;2023-07-24T14:12:29;10.93;;;6.68;;
17631;SDS011;8934;51.194;17.150;2023-07-24T14:15:17;7.45;;;6.18;;
17631;SDS011;8934;51.194;17.150;2023-07-24T14:18:04;10.07;;;6.28;;
17631;SDS011;8934;51.194;17.150;2023-07-24T14:20:51;8.85;;;6.32;;
17631;SDS011;8934;51.194;17.150;2023-07-24T14:23:42;11.15;;;6.38;;
17631;SDS011;8934;51.194;17.150;2023-07-24T14:26:29;11.60;;;6.00;;
17631;SDS011;8934;51.194;17.150;2023-07-24T14:29:16;8.13;;;6.40;;
17631;SDS011;8934;51.194;17.150;2023-07-24T14:32:04;11.70;;;6.43;;
17631;SDS011;8934;51.194;17.150;2023-07-24T14:34:52;7.95;;;6.25;;
17631;SDS011;8934;51.194;17.150;2023-07-24T14:37:39;8.93;;;6.45;;
17631;SDS011;8934;51.194;17.150;2023-07-24T14:40:28;8.70;;;6.22;;
17631;SDS011;8934;51.194;17.150;2023-07-24T14:43:16;10.50;;;7.13;;
17631;SDS011;8934;51.194;17.150;2023-07-24T14:46:03;7.90;;;5.60;;
17631;SDS011;8934;51.194;17.150;2023-07-24T14:48:51;8.30;;;6.47;;
17631;SDS011;8934;51.194;17.150;2023-07-24T14:51:38;7.78;;;6.10;;
17631;SDS011;8934;51.194;17.150;2023-07-24T14:54:25;9.02;;;6.38;;
17631;SDS011;8934;51.194;17.150;2023-07-24T14:57:14;7.30;;;5.45;;
17631;SDS011;8934;51.194;17.150;2023-07-24T15:00:10;8.68;;;6.50;;
17631;SDS011;8934;51.194;17.150;2023-07-24T15:02:58;8.50;;;5.70;;
17631;SDS011;8934;51.194;17.150;2023-07-24T15:05:46;8.88;;;6.15;;
17631;SDS011;8934;51.194;17.150;2023-07-24T15:08:33;9.95;;;6.93;;
17631;SDS011;8934;51.194;17.150;2023-07-24T15:11:21;8.77;;;7.07;;
17631;SDS011;8934;51.194;17.150;2023-07-24T15:14:10;8.48;;;6.78;;
17631;SDS011;8934;51.194;17.150;2023-07-24T15:16:57;11.55;;;7.00;;
17631;SDS011;8934;51.194;17.150;2023-07-24T15:19:44;9.57;;;6.03;;
17631;SDS011;8934;51.194;17.150;2023-07-24T15:22:32;7.97;;;6.35;;
17631;SDS011;8934;51.194;17.150;2023-07-24T15:25:19;9.68;;;6.78;;
17631;SDS011;8934;51.194;17.150;2023-07-24T15:28:07;7.57;;;6.20;;
17631;SDS011;8934;51.194;17.150;2023-07-24T15:30:56;8.40;;;6.50;;
17631;SDS011;8934;51.194;17.150;2023-07-24T15:33:43;8.40;;;6.70;;
17631;SDS011;8934;51.194;17.150;2023-07-24T15:36:31;8.65;;;5.82;;
17631;SDS011;8934;51.194;17.150;2023-07-24T15:39:18;8.90;;;6.90;;
17631;SDS011;8934;51.194;17.150;2023-07-24T15:42:05;9.80;;;7.05;;
17631;SDS011;8934;51.194;17.150;2023-07-24T15:44:54;7.97;;;6.75;;
17631;SDS011;8934;51.194;17.150;2023-07-24T15:47:43;10.63;;;6.70;;
17631;SDS011;8934;51.194;17.150;2023-07-24T15:50:30;10.02;;;6.47;;
17631;SDS011;8934;51.194;17.150;2023-07-24T15:53:17;7.15;;;5.80;;
17631;SDS011;8934;51.194;17.150;2023-07-24T15:56:04;8.23;;;5.85;;
17631;SDS011;8934;51.194;17.150;2023-07-24T15:58:52;7.65;;;5.95;;
17631;SDS011;8934;51.194;17.150;2023-07-24T16:01:40;8.35;;;6.57;;
17631;SDS011;8934;51.194;17.150;2023-07-24T16:04:29;8.90;;;6.43;;
17631;SDS011;8934;51.194;17.150;2023-07-24T16:07:16;10.15;;;6.72;;
17631;SDS011;8934;51.194;17.150;2023-07-24T16:10:04;10.35;;;6.78;;
17631;SDS011;8934;51.194;17.150;2023-07-24T16:12:52;8.90;;;6.80;;
17631;SDS011;8934;51.194;17.150;2023-07-24T16:15:39;10.63;;;6.78;;
17631;SDS011;8934;51.194;17.150;2023-07-24T16:18:29;8.60;;;6.45;;
17631;SDS011;8934;51.194;17.150;2023-07-24T16:21:18;9.30;;;6.60;;
17631;SDS011;8934;51.194;17.150;2023-07-24T16:24:06;8.20;;;6.40;;
17631;SDS011;8934;51.194;17.150;2023-07-24T16:26:53;8.00;;;6.40;;
17631;SDS011;8934;51.194;17.150;2023-07-24T16:29:40;8.60;;;6.40;;
17631;SDS011;8934;51.194;17.150;2023-07-24T16:32:27;8.85;;;6.65;;
17631;SDS011;8934;51.194;17.150;2023-07-24T16:35:14;10.73;;;6.78;;
17631;SDS011;8934;51.194;17.150;2023-07-24T16:38:03;8.13;;;6.53;;
17631;SDS011;8934;51.194;17.150;2023-07-24T16:40:52;10.90;;;6.65;;
17631;SDS011;8934;51.194;17.150;2023-07-24T16:43:40;8.32;;;6.53;;
17631;SDS011;8934;51.194;17.150;2023-07-24T16:46:27;9.00;;;6.15;;
17631;SDS011;8934;51.194;17.150;2023-07-24T16:49:15;10.63;;;6.90;;
17631;SDS011;8934;51.194;17.150;2023-07-24T16:52:03;9.93;;;6.85;;